Buitenpost, Netherlands
Current Conditions -  °F | °C
As of 9:55 AM on Friday 24 Oct 2014 (Local Time) from EHLW Reporting Station
Haze Haze  
Wind Chill: 52°   Ceiling: 1600
Heat Index: 52°   Visibility: 5mi
Dew Point: 50°   Wind: 13mph
Humidity: 94%   Direction: 180°S
Pressure: 30.03"   Gusts: NA
Location:  53.25°N, 6.14°E
Report Text: EHLW 240755Z AUTO 18011KT 8000 BR FEW006 OVC016 11/10 Q1017 WHT 20010KT 8000 BR FEW010 OVC016 TEMPO 3500 RADZ FEW004 SCT006 BKN008
Loading
Personal Weather Stations






























Interactive Weather Map
Tropical Storm Tracking
New forecast layout! Learn more

10-Day Weather Forecast

Advertisements
Track Severe Weather on mobile